createdAt,value
2023-03-06T00:01:08.357Z,13.43
2023-03-06T00:04:10.993Z,13.33
2023-03-06T00:07:13.985Z,12.10
2023-03-06T00:10:20.097Z,12.77
2023-03-06T00:13:26.918Z,15.32
2023-03-06T00:16:29.669Z,10.70
2023-03-06T00:19:32.399Z,12.63
2023-03-06T00:22:35.152Z,14.70
2023-03-06T00:25:38.958Z,12.20
2023-03-06T00:28:41.903Z,17.90
2023-03-06T00:31:47.979Z,14.93
2023-03-06T00:34:54.450Z,13.80
2023-03-06T00:37:59.843Z,12.98
2023-03-06T00:41:13.411Z,13.30
2023-03-06T00:44:16.088Z,11.68
2023-03-06T00:47:19.606Z,13.05
2023-03-06T00:50:22.289Z,11.90
2023-03-06T00:53:24.983Z,15.43
2023-03-06T00:56:27.666Z,13.00
2023-03-06T00:59:30.306Z,16.20
2023-03-06T01:02:33.117Z,12.35
2023-03-06T01:05:37.711Z,15.73
2023-03-06T01:08:40.317Z,13.25
2023-03-06T01:11:43.172Z,14.20
2023-03-06T01:14:45.899Z,12.52
2023-03-06T01:17:49.022Z,12.00
2023-03-06T01:20:51.710Z,11.53
2023-03-06T01:23:54.345Z,11.93
2023-03-06T01:26:57.331Z,12.73
2023-03-06T01:30:00.034Z,11.88
2023-03-06T01:33:05.743Z,12.68
2023-03-06T01:36:11.150Z,10.77
2023-03-06T01:39:13.886Z,11.02
2023-03-06T01:42:16.747Z,12.45
2023-03-06T01:45:25.486Z,11.82
2023-03-06T01:48:28.280Z,12.05
2023-03-06T01:51:36.374Z,15.60
2023-03-06T01:54:45.665Z,9.18
2023-03-06T01:57:53.058Z,12.75
2023-03-06T02:00:55.637Z,10.85
2023-03-06T02:03:58.732Z,10.25
2023-03-06T02:07:01.671Z,13.23
2023-03-06T02:10:05.472Z,9.85
2023-03-06T02:13:08.146Z,9.90
2023-03-06T02:16:11.787Z,10.63
2023-03-06T02:19:46.607Z,10.90
2023-03-06T02:22:52.866Z,8.13
2023-03-06T02:25:56.094Z,10.40
2023-03-06T02:28:59.492Z,9.88
2023-03-06T02:32:02.275Z,10.60
2023-03-06T02:35:05.257Z,10.65
2023-03-06T02:38:12.609Z,10.37
2023-03-06T02:41:18.787Z,11.55
2023-03-06T02:44:23.186Z,9.65
2023-03-06T02:47:25.863Z,10.15
2023-03-06T02:50:28.612Z,8.75
2023-03-06T02:53:31.421Z,11.33
2023-03-06T02:56:34.079Z,11.55
2023-03-06T02:59:36.764Z,12.18
2023-03-06T03:02:39.883Z,10.10
2023-03-06T03:05:42.549Z,9.95
2023-03-06T03:08:45.198Z,10.37
2023-03-06T03:11:47.813Z,10.75
2023-03-06T03:14:50.431Z,10.90
2023-03-06T03:17:56.226Z,11.18
2023-03-06T03:20:59.453Z,9.80
2023-03-06T03:24:02.098Z,12.60
2023-03-06T03:27:07.657Z,11.20
2023-03-06T03:30:11.433Z,10.32
2023-03-06T03:33:14.042Z,9.82
2023-03-06T03:36:16.677Z,10.90
2023-03-06T03:39:20.052Z,10.53
2023-03-06T03:42:25.994Z,11.75
2023-03-06T03:45:28.670Z,11.98
2023-03-06T03:48:32.013Z,9.82
2023-03-06T03:51:34.714Z,11.73
2023-03-06T03:54:37.815Z,10.90
2023-03-06T03:57:40.459Z,8.98
2023-03-06T04:00:43.156Z,9.68
2023-03-06T04:03:46.069Z,13.15
2023-03-06T04:06:48.939Z,11.48
2023-03-06T04:09:51.559Z,13.07
2023-03-06T04:12:54.246Z,10.23
2023-03-06T04:15:57.011Z,12.07
2023-03-06T04:18:59.734Z,11.73
2023-03-06T04:22:04.550Z,12.50
2023-03-06T04:25:07.542Z,11.50
2023-03-06T04:28:10.843Z,9.40
2023-03-06T04:31:13.750Z,11.12
2023-03-06T04:34:16.544Z,11.82
2023-03-06T04:37:24.991Z,10.57
2023-03-06T04:40:29.248Z,12.10
2023-03-06T04:43:32.014Z,11.65
2023-03-06T04:46:35.550Z,13.10
2023-03-06T04:49:38.502Z,13.00
2023-03-06T04:52:41.163Z,13.95
2023-03-06T04:55:43.933Z,14.03
2023-03-06T04:58:46.597Z,13.15
2023-03-06T05:01:49.783Z,12.93
2023-03-06T05:04:52.598Z,14.68
2023-03-06T05:07:55.539Z,14.07
2023-03-06T05:11:00.546Z,13.70
2023-03-06T05:14:03.145Z,14.10
2023-03-06T05:17:05.926Z,12.88
2023-03-06T05:20:10.503Z,16.55
2023-03-06T05:23:13.665Z,14.95
2023-03-06T05:26:16.966Z,13.27
2023-03-06T05:29:20.045Z,13.65
2023-03-06T05:32:22.935Z,12.75
2023-03-06T05:35:25.850Z,13.27
2023-03-06T05:38:29.049Z,12.50
2023-03-06T05:41:31.708Z,12.40
2023-03-06T05:44:35.532Z,12.30
2023-03-06T05:47:38.202Z,14.93
2023-03-06T05:50:40.810Z,11.60
2023-03-06T05:53:43.625Z,14.98
2023-03-06T05:56:46.206Z,13.40
2023-03-06T05:59:50.337Z,12.63
2023-03-06T06:02:53.170Z,13.32
2023-03-06T06:05:55.794Z,15.07
2023-03-06T06:08:58.522Z,13.80
2023-03-06T06:12:03.860Z,14.73
2023-03-06T06:15:07.421Z,15.15
2023-03-06T06:18:10.079Z,12.30
2023-03-06T06:21:14.796Z,14.38
2023-03-06T06:24:20.918Z,17.10
2023-03-06T06:27:23.564Z,15.80
2023-03-06T06:30:26.259Z,16.60
2023-03-06T06:33:29.121Z,15.43
2023-03-06T06:36:32.610Z,16.15
2023-03-06T06:39:35.494Z,17.60
2023-03-06T06:42:40.083Z,17.23
2023-03-06T06:45:47.305Z,18.73
2023-03-06T06:48:54.757Z,18.02
2023-03-06T06:51:57.737Z,16.35
2023-03-06T06:55:00.404Z,17.75
2023-03-06T06:58:03.080Z,20.33
2023-03-06T07:01:08.635Z,18.10
2023-03-06T07:04:13.282Z,20.27
2023-03-06T07:07:16.065Z,20.80
2023-03-06T07:10:20.737Z,19.60
2023-03-06T07:13:23.818Z,18.27
2023-03-06T07:16:29.709Z,19.50
2023-03-06T07:19:33.159Z,20.05
2023-03-06T07:22:48.654Z,21.62
2023-03-06T07:25:54.882Z,25.37
2023-03-06T07:29:00.679Z,30.70
2023-03-06T07:32:03.456Z,33.03
2023-03-06T07:35:19.817Z,24.63
2023-03-06T07:38:23.057Z,21.08
2023-03-06T07:41:25.775Z,15.65
2023-03-06T07:44:28.737Z,14.60
2023-03-06T07:47:31.523Z,18.02
2023-03-06T07:50:35.252Z,13.65
2023-03-06T07:53:38.281Z,15.40
2023-03-06T07:56:40.933Z,13.38
2023-03-06T07:59:43.539Z,13.23
2023-03-06T08:02:47.008Z,11.70
2023-03-06T08:05:49.814Z,13.68
2023-03-06T08:08:53.956Z,12.90
2023-03-06T08:11:56.799Z,14.20
2023-03-06T08:14:59.439Z,11.83
2023-03-06T08:18:03.991Z,13.90
2023-03-06T08:21:06.798Z,11.55
2023-03-06T08:24:09.515Z,12.70
2023-03-06T08:27:12.171Z,13.60
2023-03-06T08:30:18.081Z,12.07
2023-03-06T08:33:20.825Z,15.02
2023-03-06T08:36:24.183Z,11.80
2023-03-06T08:39:26.851Z,14.32
2023-03-06T08:42:29.404Z,13.73
2023-03-06T08:45:32.033Z,10.90
2023-03-06T08:48:34.737Z,11.12
2023-03-06T08:51:37.571Z,11.40
2023-03-06T08:54:40.282Z,12.63
2023-03-06T08:57:42.917Z,12.70
2023-03-06T09:00:45.947Z,17.33
2023-03-06T09:03:49.242Z,11.98
2023-03-06T09:06:53.934Z,11.55
2023-03-06T09:09:58.329Z,11.77
2023-03-06T09:13:04.034Z,12.50
2023-03-06T09:16:07.648Z,14.53
2023-03-06T09:19:10.586Z,11.27
2023-03-06T09:22:13.263Z,11.18
2023-03-06T09:25:20.576Z,12.32
2023-03-06T09:28:26.998Z,12.48
2023-03-06T09:31:31.807Z,13.13
2023-03-06T09:34:34.474Z,12.55
2023-03-06T09:37:41.099Z,13.80
2023-03-06T09:40:52.683Z,13.75
2023-03-06T09:44:08.818Z,21.77
2023-03-06T09:47:28.831Z,27.53
2023-03-06T09:50:46.125Z,18.25
2023-03-06T09:54:06.999Z,22.20
2023-03-06T09:57:27.564Z,23.17
2023-03-06T10:00:34.609Z,19.45
2023-03-06T10:03:48.551Z,13.60
2023-03-06T10:06:56.429Z,13.57
2023-03-06T10:10:05.028Z,13.60
2023-03-06T10:13:15.550Z,15.68
2023-03-06T10:16:30.281Z,14.45
2023-03-06T10:19:42.713Z,17.10
2023-03-06T10:23:01.055Z,19.40
2023-03-06T10:26:40.100Z,15.10
2023-03-06T10:30:06.948Z,15.45
2023-03-06T10:33:36.565Z,12.40
2023-03-06T10:36:42.407Z,13.73
2023-03-06T10:39:50.244Z,12.90
2023-03-06T10:43:10.624Z,15.32
2023-03-06T10:46:30.460Z,13.93
2023-03-06T10:49:37.535Z,14.23
2023-03-06T10:52:40.356Z,10.13
2023-03-06T10:55:51.636Z,14.70
2023-03-06T10:59:23.147Z,14.45
2023-03-06T11:02:30.238Z,14.18
2023-03-06T11:05:33.014Z,14.35
2023-03-06T11:08:39.201Z,17.80
2023-03-06T11:11:42.222Z,15.45
2023-03-06T11:14:45.022Z,14.35
2023-03-06T11:17:57.904Z,14.38
2023-03-06T11:21:07.386Z,13.25
2023-03-06T11:24:17.046Z,16.60
2023-03-06T11:27:34.642Z,14.27
2023-03-06T11:30:47.824Z,14.68
2023-03-06T11:34:09.657Z,14.73
2023-03-06T11:37:23.200Z,15.30
2023-03-06T11:40:45.252Z,15.07
2023-03-06T11:44:04.647Z,15.23
2023-03-06T11:47:42.877Z,15.07
2023-03-06T11:50:53.265Z,16.08
2023-03-06T11:53:59.222Z,13.50
2023-03-06T11:57:05.970Z,13.23
2023-03-06T12:00:14.240Z,14.65
2023-03-06T12:03:39.971Z,13.85
2023-03-06T12:07:01.124Z,13.93
2023-03-06T12:10:31.037Z,12.95
2023-03-06T12:13:47.911Z,13.00
2023-03-06T12:17:05.860Z,14.23
2023-03-06T12:20:29.192Z,15.07
2023-03-06T12:24:03.918Z,14.07
2023-03-06T12:27:26.001Z,14.00
2023-03-06T12:30:36.308Z,13.43
2023-03-06T12:34:14.703Z,16.95
2023-03-06T12:37:33.944Z,16.00
2023-03-06T12:41:01.946Z,12.07
2023-03-06T12:44:04.621Z,15.63
2023-03-06T12:47:12.922Z,13.97
2023-03-06T12:50:33.991Z,14.82
2023-03-06T12:53:36.959Z,15.18
2023-03-06T12:56:40.950Z,15.52
2023-03-06T12:59:48.719Z,14.15
2023-03-06T13:02:55.589Z,15.77
2023-03-06T13:06:32.449Z,17.30
2023-03-06T13:09:55.967Z,14.00
2023-03-06T13:13:05.209Z,16.02
2023-03-06T13:16:16.519Z,16.45
2023-03-06T13:19:26.469Z,18.37
2023-03-06T13:22:33.104Z,16.08
2023-03-06T13:25:37.674Z,15.40
2023-03-06T13:28:50.404Z,14.68
2023-03-06T13:31:53.039Z,15.25
2023-03-06T13:34:55.815Z,17.57
2023-03-06T13:37:59.969Z,16.87
2023-03-06T13:41:21.197Z,19.05
2023-03-06T13:44:23.833Z,15.25
2023-03-06T13:47:31.947Z,16.00
2023-03-06T13:50:40.543Z,17.60
2023-03-06T13:54:01.690Z,19.25
2023-03-06T13:57:22.635Z,19.08
2023-03-06T14:00:47.350Z,15.18
2023-03-06T14:04:01.001Z,18.42
2023-03-06T14:07:24.636Z,16.33
2023-03-06T14:10:31.002Z,16.73
2023-03-06T14:13:47.129Z,19.25
2023-03-06T14:16:53.717Z,19.10
2023-03-06T14:20:00.236Z,19.87
2023-03-06T14:23:32.544Z,16.87
2023-03-06T14:26:42.062Z,19.23
2023-03-06T14:29:46.720Z,18.30
2023-03-06T14:32:54.497Z,18.15
2023-03-06T14:36:00.366Z,20.62
2023-03-06T14:39:09.006Z,19.77
2023-03-06T14:42:24.926Z,20.00
2023-03-06T14:45:31.994Z,19.73
2023-03-06T14:48:42.999Z,19.02
2023-03-06T14:51:52.250Z,22.35
2023-03-06T14:54:55.000Z,21.03
2023-03-06T14:58:03.195Z,19.70
2023-03-06T15:01:09.107Z,21.90
2023-03-06T15:04:29.373Z,23.33
2023-03-06T15:07:33.016Z,24.23
2023-03-06T15:10:37.457Z,25.23
2023-03-06T15:13:40.493Z,26.30
2023-03-06T15:16:43.160Z,30.95
2023-03-06T15:19:48.683Z,27.27
2023-03-06T15:22:51.370Z,53.58
2023-03-06T15:25:57.198Z,28.87
2023-03-06T15:29:22.088Z,32.80
2023-03-06T15:32:32.387Z,87.18
2023-03-06T15:35:37.918Z,47.47
2023-03-06T15:38:45.712Z,26.58
2023-03-06T15:41:48.425Z,33.63
2023-03-06T15:44:53.613Z,26.52
2023-03-06T15:47:57.320Z,30.58
2023-03-06T15:51:01.067Z,30.02
2023-03-06T15:54:11.842Z,28.12
2023-03-06T15:57:26.756Z,26.43
2023-03-06T16:00:34.499Z,36.45
2023-03-06T16:03:37.064Z,34.28
2023-03-06T16:06:43.828Z,42.00
2023-03-06T16:09:46.731Z,39.00
2023-03-06T16:12:52.959Z,29.07
2023-03-06T16:15:55.631Z,33.85
2023-03-06T16:19:13.983Z,39.28
2023-03-06T16:22:22.957Z,36.53
2023-03-06T16:25:27.937Z,35.25
2023-03-06T16:28:32.210Z,34.07
2023-03-06T16:31:34.990Z,32.90
2023-03-06T16:34:38.561Z,30.98
2023-03-06T16:37:45.323Z,26.62
2023-03-06T16:40:51.104Z,33.35
2023-03-06T16:43:54.882Z,26.53
2023-03-06T16:47:01.169Z,26.90
2023-03-06T16:50:04.597Z,31.83
2023-03-06T16:53:11.626Z,26.12
2023-03-06T16:56:17.845Z,31.80
2023-03-06T16:59:25.383Z,47.47
2023-03-06T17:02:28.286Z,83.65
2023-03-06T17:05:34.485Z,113.45
2023-03-06T17:08:38.656Z,89.03
2023-03-06T17:11:47.652Z,100.12
2023-03-06T17:14:50.805Z,175.93
2023-03-06T17:17:53.610Z,109.65
2023-03-06T17:20:56.719Z,162.43
2023-03-06T17:24:02.561Z,72.37
2023-03-06T17:27:05.359Z,44.55
2023-03-06T17:30:08.587Z,43.43
2023-03-06T17:33:12.456Z,78.95
2023-03-06T17:36:16.396Z,64.72
2023-03-06T17:39:23.159Z,42.83
2023-03-06T17:42:26.000Z,40.12
2023-03-06T17:45:29.698Z,44.67
2023-03-06T17:48:35.603Z,42.78
2023-03-06T17:51:39.854Z,49.90
2023-03-06T17:54:42.766Z,61.45
2023-03-06T17:57:45.415Z,52.70
2023-03-06T18:00:48.539Z,61.47
2023-03-06T18:03:51.511Z,56.13
2023-03-06T18:06:54.843Z,49.42
2023-03-06T18:10:07.110Z,39.28
2023-03-06T18:13:10.770Z,33.72
2023-03-06T18:16:15.868Z,29.30
2023-03-06T18:19:18.626Z,31.62
2023-03-06T18:22:24.761Z,31.95
2023-03-06T18:25:33.629Z,33.38
2023-03-06T18:28:36.536Z,37.10
2023-03-06T18:31:41.207Z,33.20
2023-03-06T18:34:44.199Z,32.67
2023-03-06T18:37:46.928Z,33.78
2023-03-06T18:40:49.917Z,28.80
2023-03-06T18:43:56.702Z,28.67
2023-03-06T18:46:59.340Z,29.90
2023-03-06T18:50:04.880Z,29.80
2023-03-06T18:53:08.385Z,25.40
2023-03-06T18:56:16.992Z,25.17
2023-03-06T18:59:20.517Z,45.15
2023-03-06T19:02:23.840Z,44.13
2023-03-06T19:05:26.718Z,30.17
2023-03-06T19:08:30.875Z,27.17
2023-03-06T19:11:35.213Z,29.98
2023-03-06T19:14:38.347Z,37.08
2023-03-06T19:17:41.250Z,31.40
2023-03-06T19:20:44.936Z,44.40
2023-03-06T19:23:48.746Z,30.95
2023-03-06T19:26:51.778Z,32.42
2023-03-06T19:29:54.811Z,43.08
2023-03-06T19:32:57.910Z,43.57
2023-03-06T19:36:02.537Z,39.83
2023-03-06T19:39:07.161Z,37.58
2023-03-06T19:42:12.846Z,35.85
2023-03-06T19:45:17.265Z,32.60
2023-03-06T19:48:22.582Z,32.67
2023-03-06T19:51:27.007Z,28.55
2023-03-06T19:54:34.253Z,28.65
2023-03-06T19:57:37.318Z,29.58
2023-03-06T20:00:41.739Z,28.50
2023-03-06T20:03:45.085Z,30.87
2023-03-06T20:06:50.634Z,28.98
2023-03-06T20:09:54.580Z,28.25
2023-03-06T20:12:57.614Z,29.63
2023-03-06T20:16:04.350Z,26.12
2023-03-06T20:19:08.808Z,29.33
2023-03-06T20:22:12.916Z,29.17
2023-03-06T20:25:16.170Z,28.62
2023-03-06T20:28:22.435Z,38.92
2023-03-06T20:31:28.525Z,32.67
2023-03-06T20:34:31.493Z,33.50
2023-03-06T20:37:34.631Z,35.63
2023-03-06T20:40:42.209Z,30.35
2023-03-06T20:43:45.618Z,37.10
2023-03-06T20:46:48.912Z,35.75
2023-03-06T20:49:51.957Z,31.53
2023-03-06T20:52:56.308Z,34.30
2023-03-06T20:55:59.324Z,31.65
2023-03-06T20:59:02.730Z,30.60
2023-03-06T21:02:10.405Z,35.38
2023-03-06T21:05:16.530Z,37.17
2023-03-06T21:08:19.526Z,36.83
2023-03-06T21:11:22.383Z,29.85
2023-03-06T21:14:25.069Z,32.42
2023-03-06T21:17:30.370Z,36.70
2023-03-06T21:20:33.884Z,32.43
2023-03-06T21:23:37.794Z,31.27
2023-03-06T21:26:40.790Z,30.55
2023-03-06T21:29:44.888Z,34.22
2023-03-06T21:32:47.721Z,32.40
2023-03-06T21:35:50.497Z,32.17
2023-03-06T21:38:55.058Z,30.80
2023-03-06T21:41:57.921Z,30.08
2023-03-06T21:45:00.514Z,27.90
2023-03-06T21:48:03.373Z,26.10
2023-03-06T21:51:21.050Z,30.23
2023-03-06T21:54:27.245Z,29.58
2023-03-06T21:57:30.423Z,29.98
2023-03-06T22:00:36.497Z,33.72
2023-03-06T22:03:42.065Z,31.05
2023-03-06T22:06:48.212Z,32.77
2023-03-06T22:09:53.807Z,33.10
2023-03-06T22:12:56.534Z,27.95
2023-03-06T22:15:59.197Z,35.28
2023-03-06T22:19:01.961Z,31.23
2023-03-06T22:22:05.004Z,31.17
2023-03-06T22:25:08.260Z,31.55
2023-03-06T22:28:10.959Z,30.10
2023-03-06T22:31:16.645Z,29.15
2023-03-06T22:34:19.264Z,29.00
2023-03-06T22:37:25.080Z,31.87
2023-03-06T22:40:27.844Z,30.33
2023-03-06T22:43:30.964Z,30.80
2023-03-06T22:46:33.883Z,28.08
2023-03-06T22:49:37.991Z,33.25
2023-03-06T22:52:40.976Z,29.67
2023-03-06T22:55:44.027Z,25.50
2023-03-06T22:58:47.438Z,27.80
2023-03-06T23:01:50.182Z,28.98
2023-03-06T23:04:53.524Z,32.08
2023-03-06T23:07:56.193Z,28.63
2023-03-06T23:10:58.846Z,28.65
2023-03-06T23:14:01.807Z,29.73
2023-03-06T23:17:05.019Z,29.10
2023-03-06T23:20:10.316Z,26.52
2023-03-06T23:23:13.047Z,26.80
2023-03-06T23:26:16.192Z,26.40
2023-03-06T23:29:19.011Z,30.12
2023-03-06T23:32:24.780Z,28.55
2023-03-06T23:35:27.407Z,29.55
2023-03-06T23:38:30.466Z,26.93
2023-03-06T23:41:33.424Z,28.38
2023-03-06T23:44:36.238Z,30.20
2023-03-06T23:47:38.799Z,30.60
2023-03-06T23:50:44.573Z,27.23
2023-03-06T23:53:48.375Z,26.83
2023-03-06T23:56:51.016Z,30.30
2023-03-06T23:59:53.647Z,28.40
